createdAt,value
2023-05-13T00:01:02.254Z,7.90
2023-05-13T00:02:35.467Z,7.80
2023-05-13T00:04:09.361Z,7.80
2023-05-13T00:05:42.453Z,7.90
2023-05-13T00:07:14.601Z,7.80
2023-05-13T00:08:47.748Z,7.60
2023-05-13T00:10:22.567Z,7.90
2023-05-13T00:11:55.856Z,8.00
2023-05-13T00:13:27.959Z,8.00
2023-05-13T00:15:01.109Z,8.20
2023-05-13T00:16:33.240Z,8.50
2023-05-13T00:18:06.480Z,8.70
2023-05-13T00:19:38.641Z,8.70
2023-05-13T00:21:11.776Z,8.80
2023-05-13T00:22:43.851Z,8.90
2023-05-13T00:24:16.970Z,8.90
2023-05-13T00:25:51.382Z,8.90
2023-05-13T00:27:24.475Z,8.80
2023-05-13T00:28:57.580Z,8.80
2023-05-13T00:30:29.822Z,8.70
2023-05-13T00:32:03.280Z,8.60
2023-05-13T00:33:35.511Z,8.60
2023-05-13T00:35:09.242Z,8.50
2023-05-13T00:36:42.421Z,8.60
2023-05-13T00:38:16.119Z,8.80
2023-05-13T00:39:48.441Z,8.50
2023-05-13T00:41:23.336Z,8.40
2023-05-13T00:42:56.507Z,8.30
2023-05-13T00:44:29.571Z,8.20
2023-05-13T00:46:03.170Z,8.20
2023-05-13T00:47:35.369Z,7.90
2023-05-13T00:49:08.574Z,7.90
2023-05-13T00:50:44.636Z,7.70
2023-05-13T00:52:17.958Z,7.70
2023-05-13T00:53:51.104Z,7.70
2023-05-13T00:55:24.283Z,7.70
2023-05-13T00:56:59.507Z,7.70
2023-05-13T00:58:32.665Z,7.50
2023-05-13T01:00:05.874Z,7.60
2023-05-13T01:01:46.397Z,7.50
2023-05-13T01:03:28.230Z,7.70
2023-05-13T01:05:10.582Z,7.90
2023-05-13T01:06:53.256Z,7.90
2023-05-13T01:08:36.526Z,8.00
2023-05-13T01:10:15.387Z,8.10
2023-05-13T01:11:51.768Z,8.20
2023-05-13T01:13:32.167Z,8.10
2023-05-13T01:15:06.683Z,8.30
2023-05-13T01:16:43.167Z,8.30
2023-05-13T01:18:20.742Z,8.30
2023-05-13T01:19:56.905Z,8.50
2023-05-13T01:21:36.481Z,8.30
2023-05-13T01:23:09.591Z,8.50
2023-05-13T01:24:41.788Z,8.50
2023-05-13T01:26:14.958Z,8.60
2023-05-13T01:27:48.152Z,8.70
2023-05-13T01:29:23.134Z,8.50
2023-05-13T01:30:57.320Z,8.50
2023-05-13T01:32:32.146Z,8.50
2023-05-13T01:34:10.419Z,8.70
2023-05-13T01:35:44.315Z,7.90
2023-05-13T01:37:18.781Z,8.20
2023-05-13T01:38:53.030Z,8.10
2023-05-13T01:40:32.771Z,8.00
2023-05-13T01:42:10.591Z,7.90
2023-05-13T01:43:43.741Z,7.70
2023-05-13T01:45:17.007Z,7.60
2023-05-13T01:46:50.676Z,7.40
2023-05-13T01:48:24.587Z,7.40
2023-05-13T01:49:58.122Z,7.30
2023-05-13T01:51:31.941Z,7.30
2023-05-13T01:53:05.395Z,7.40
2023-05-13T01:54:38.559Z,7.20
2023-05-13T01:56:14.685Z,7.20
2023-05-13T01:57:48.312Z,7.00
2023-05-13T01:59:21.460Z,7.00
2023-05-13T02:00:54.567Z,7.00
2023-05-13T02:02:27.647Z,6.90
2023-05-13T02:04:02.279Z,6.80
2023-05-13T02:05:36.731Z,6.70
2023-05-13T02:07:13.163Z,6.70
2023-05-13T02:08:47.605Z,6.60
2023-05-13T02:10:20.812Z,6.50
2023-05-13T02:11:53.008Z,6.50
2023-05-13T02:13:27.724Z,6.50
2023-05-13T02:15:01.011Z,6.50
2023-05-13T02:16:35.782Z,6.40
2023-05-13T02:18:12.154Z,6.40
2023-05-13T02:19:44.347Z,6.40
2023-05-13T02:21:17.452Z,6.40
2023-05-13T02:22:50.529Z,6.40
2023-05-13T02:24:25.837Z,6.40
2023-05-13T02:25:58.951Z,6.50
2023-05-13T02:27:33.782Z,6.50
2023-05-13T02:29:05.942Z,6.50
2023-05-13T02:30:39.087Z,6.50
2023-05-13T02:32:12.483Z,6.50
2023-05-13T02:33:45.675Z,6.50
2023-05-13T02:35:19.165Z,6.50
2023-05-13T02:36:53.636Z,6.40
2023-05-13T02:38:26.750Z,6.50
2023-05-13T02:40:01.288Z,6.40
2023-05-13T02:41:35.887Z,6.40
2023-05-13T02:43:08.938Z,6.30
2023-05-13T02:44:52.819Z,6.20
2023-05-13T02:46:25.221Z,6.20
2023-05-13T02:47:58.691Z,6.10
2023-05-13T02:49:31.730Z,6.20
2023-05-13T02:51:04.987Z,6.20
2023-05-13T02:52:38.891Z,6.20
2023-05-13T02:54:11.974Z,6.30
2023-05-13T02:55:46.398Z,6.30
2023-05-13T02:57:19.458Z,6.30
2023-05-13T02:58:51.575Z,6.30
2023-05-13T03:00:24.728Z,6.30
2023-05-13T03:01:58.793Z,6.30
2023-05-13T03:03:32.090Z,6.30
2023-05-13T03:05:05.954Z,6.40
2023-05-13T03:06:39.090Z,6.30
2023-05-13T03:08:12.434Z,6.30
2023-05-13T03:09:45.495Z,6.50
2023-05-13T03:11:19.961Z,6.60
2023-05-13T03:12:53.113Z,6.80
2023-05-13T03:14:26.415Z,6.90
2023-05-13T03:16:00.168Z,6.90
2023-05-13T03:17:33.737Z,6.80
2023-05-13T03:19:07.140Z,6.80
2023-05-13T03:20:40.435Z,6.80
2023-05-13T03:22:14.525Z,6.80
2023-05-13T03:23:47.686Z,6.70
2023-05-13T03:25:20.493Z,6.70
2023-05-13T03:27:00.134Z,6.60
2023-05-13T03:28:33.468Z,6.70
2023-05-13T03:30:07.539Z,6.60
2023-05-13T03:31:47.650Z,6.60
2023-05-13T03:33:20.853Z,6.80
2023-05-13T03:34:53.967Z,6.80
2023-05-13T03:36:27.089Z,6.90
2023-05-13T03:37:59.467Z,7.00
2023-05-13T03:39:32.692Z,7.10
2023-05-13T03:41:05.852Z,7.10
2023-05-13T03:42:39.376Z,7.00
2023-05-13T03:44:13.205Z,7.00
2023-05-13T03:45:48.576Z,7.00
2023-05-13T03:47:24.823Z,7.00
2023-05-13T03:48:58.195Z,7.00
2023-05-13T03:50:33.063Z,7.10
2023-05-13T03:52:07.974Z,7.10
2023-05-13T03:53:41.084Z,7.20
2023-05-13T03:55:15.196Z,7.30
2023-05-13T03:56:48.324Z,7.40
2023-05-13T03:58:22.923Z,7.40
2023-05-13T03:59:56.079Z,7.40
2023-05-13T04:01:29.136Z,7.50
2023-05-13T04:03:02.242Z,7.60
2023-05-13T04:04:34.372Z,7.70
2023-05-13T04:06:07.788Z,7.70
2023-05-13T04:07:41.224Z,7.70
2023-05-13T04:09:14.318Z,7.80
2023-05-13T04:10:48.605Z,8.00
2023-05-13T04:12:20.676Z,8.00
2023-05-13T04:13:55.438Z,8.10
2023-05-13T04:15:27.512Z,8.20
2023-05-13T04:17:00.678Z,8.30
2023-05-13T04:18:34.222Z,8.40
2023-05-13T04:20:09.488Z,8.40
2023-05-13T04:21:41.544Z,8.30
2023-05-13T04:23:14.630Z,8.40
2023-05-13T04:24:47.688Z,8.50
2023-05-13T04:26:21.670Z,8.60
2023-05-13T04:27:54.970Z,8.60
2023-05-13T04:29:37.247Z,8.80
2023-05-13T04:31:09.495Z,8.70
2023-05-13T04:32:43.125Z,8.80
2023-05-13T04:34:17.201Z,8.80
2023-05-13T04:35:50.989Z,8.80
2023-05-13T04:37:24.307Z,8.80
2023-05-13T04:38:59.901Z,8.90
2023-05-13T04:40:33.528Z,8.80
2023-05-13T04:42:12.640Z,8.90
2023-05-13T04:43:45.810Z,9.00
2023-05-13T04:45:20.349Z,9.10
2023-05-13T04:46:53.630Z,9.20
2023-05-13T04:48:28.766Z,9.40
2023-05-13T04:50:04.033Z,9.40
2023-05-13T04:51:38.605Z,9.60
2023-05-13T04:53:11.565Z,9.70
2023-05-13T04:54:45.056Z,9.80
2023-05-13T04:56:18.409Z,10.00
2023-05-13T04:57:51.868Z,10.00
2023-05-13T04:59:24.961Z,10.10
2023-05-13T05:00:59.410Z,10.20
2023-05-13T05:02:31.641Z,10.30
2023-05-13T05:04:05.082Z,10.40
2023-05-13T05:05:39.380Z,10.50
2023-05-13T05:07:13.961Z,10.50
2023-05-13T05:08:47.033Z,10.70
2023-05-13T05:10:19.708Z,10.70
2023-05-13T05:11:58.329Z,10.90
2023-05-13T05:13:33.796Z,11.20
2023-05-13T05:15:11.432Z,11.20
2023-05-13T05:16:47.066Z,11.30
2023-05-13T05:18:21.059Z,11.40
2023-05-13T05:19:55.833Z,11.40
2023-05-13T05:21:29.040Z,11.50
2023-05-13T05:23:02.372Z,11.50
2023-05-13T05:24:36.064Z,11.70
2023-05-13T05:26:12.090Z,11.80
2023-05-13T05:27:48.014Z,11.80
2023-05-13T05:29:21.352Z,12.00
2023-05-13T05:30:55.037Z,12.10
2023-05-13T05:32:33.897Z,12.10
2023-05-13T05:34:08.754Z,12.10
2023-05-13T05:35:41.934Z,12.20
2023-05-13T05:37:17.680Z,12.30
2023-05-13T05:38:50.816Z,12.50
2023-05-13T05:40:24.044Z,12.60
2023-05-13T05:41:57.799Z,12.90
2023-05-13T05:43:30.941Z,13.10
2023-05-13T05:45:04.091Z,14.30
2023-05-13T05:49:44.635Z,19.70
2023-05-13T05:51:17.994Z,19.70
2023-05-13T05:52:51.137Z,20.60
2023-05-13T05:54:24.298Z,20.90
2023-05-13T05:55:57.410Z,20.50
2023-05-13T05:57:30.655Z,19.90
2023-05-13T05:59:03.716Z,19.90
2023-05-13T06:00:36.821Z,19.80
2023-05-13T06:02:09.960Z,19.50
2023-05-13T06:03:45.886Z,19.80
2023-05-13T06:05:19.075Z,19.50
2023-05-13T06:06:52.821Z,19.20
2023-05-13T06:08:30.099Z,18.90
2023-05-13T06:10:04.618Z,18.50
2023-05-13T06:11:38.922Z,18.10
2023-05-13T06:13:12.322Z,18.40
2023-05-13T06:14:45.357Z,18.70
2023-05-13T06:16:17.664Z,19.20
2023-05-13T06:17:50.827Z,19.50
2023-05-13T06:19:25.368Z,20.20
2023-05-13T06:20:58.442Z,21.20
2023-05-13T06:22:31.505Z,22.20
2023-05-13T06:24:04.694Z,22.30
2023-05-13T06:25:36.847Z,22.40
2023-05-13T06:27:09.935Z,22.60
2023-05-13T06:28:42.999Z,23.20
2023-05-13T06:30:15.362Z,23.90
2023-05-13T06:31:48.999Z,24.50
2023-05-13T06:33:22.351Z,24.70
2023-05-13T06:34:56.907Z,24.90
2023-05-13T06:36:30.281Z,25.20
2023-05-13T06:38:03.339Z,25.70
2023-05-13T06:39:36.445Z,26.00
2023-05-13T06:41:09.516Z,26.30
2023-05-13T06:42:44.299Z,26.40
2023-05-13T06:44:26.199Z,26.90
2023-05-13T06:46:01.858Z,26.70
2023-05-13T06:47:35.823Z,27.00
2023-05-13T06:49:09.535Z,27.10
2023-05-13T06:50:43.904Z,27.10
2023-05-13T06:52:17.051Z,26.50
2023-05-13T06:53:50.130Z,26.70
2023-05-13T06:55:23.176Z,26.50
2023-05-13T06:56:56.716Z,27.50
2023-05-13T06:58:29.817Z,28.00
2023-05-13T07:00:03.645Z,28.10
2023-05-13T07:01:37.340Z,28.10
2023-05-13T07:03:10.566Z,27.70
2023-05-13T07:04:43.617Z,27.90
2023-05-13T07:06:18.065Z,27.90
2023-05-13T07:07:53.661Z,27.80
2023-05-13T07:09:25.849Z,27.70
2023-05-13T07:10:58.880Z,26.90
2023-05-13T07:12:32.676Z,27.60
2023-05-13T07:14:05.824Z,27.90
2023-05-13T07:15:38.952Z,27.90
2023-05-13T07:17:12.069Z,27.80
2023-05-13T07:18:45.409Z,27.90
2023-05-13T07:20:22.271Z,28.20
2023-05-13T07:21:57.420Z,28.70
2023-05-13T07:23:31.543Z,29.20
2023-05-13T07:25:05.164Z,29.60
2023-05-13T07:26:38.787Z,29.30
2023-05-13T07:28:11.822Z,29.50
2023-05-13T07:29:44.878Z,29.60
2023-05-13T07:31:18.058Z,28.70
2023-05-13T07:32:53.687Z,29.10
2023-05-13T07:34:27.075Z,30.10
2023-05-13T07:36:00.140Z,29.90
2023-05-13T07:37:34.600Z,29.10
2023-05-13T07:39:08.636Z,29.10
2023-05-13T07:40:43.097Z,28.00
2023-05-13T07:42:16.863Z,28.30
2023-05-13T07:43:50.078Z,29.50
2023-05-13T07:45:23.350Z,29.60
2023-05-13T07:46:56.629Z,28.90
2023-05-13T07:48:29.790Z,27.00
2023-05-13T07:50:08.589Z,27.50
2023-05-13T07:51:41.970Z,26.90
2023-05-13T07:53:18.947Z,27.10
2023-05-13T07:54:52.760Z,26.70
2023-05-13T07:56:25.972Z,27.20
2023-05-13T07:57:59.011Z,27.70
2023-05-13T07:59:32.069Z,28.10
2023-05-13T08:01:06.064Z,28.20
2023-05-13T08:02:40.072Z,28.50
2023-05-13T08:04:13.503Z,28.60
2023-05-13T08:05:47.993Z,28.40
2023-05-13T08:07:21.059Z,27.80
2023-05-13T08:08:55.485Z,27.60
2023-05-13T08:10:28.610Z,26.50
2023-05-13T08:12:01.695Z,25.00
2023-05-13T08:13:34.820Z,24.70
2023-05-13T08:15:08.936Z,25.50
2023-05-13T08:16:42.065Z,26.10
2023-05-13T08:18:15.141Z,25.90
2023-05-13T08:19:48.278Z,26.40
2023-05-13T08:21:21.327Z,26.60
2023-05-13T08:22:54.461Z,26.00
2023-05-13T08:24:28.881Z,25.80
2023-05-13T08:26:02.324Z,25.80
2023-05-13T08:27:36.370Z,25.90
2023-05-13T08:29:12.879Z,25.60
2023-05-13T08:30:45.958Z,24.90
2023-05-13T08:32:19.873Z,24.60
2023-05-13T08:33:53.374Z,24.40
2023-05-13T08:35:27.057Z,24.50
2023-05-13T08:37:00.144Z,24.30
2023-05-13T08:38:33.711Z,24.10
2023-05-13T08:40:10.926Z,24.00
2023-05-13T08:41:46.060Z,24.00
2023-05-13T08:43:21.022Z,24.10
2023-05-13T08:44:54.895Z,23.90
2023-05-13T08:46:28.884Z,23.60
2023-05-13T08:48:03.283Z,23.40
2023-05-13T08:49:36.400Z,23.50
2023-05-13T08:51:10.232Z,23.90
2023-05-13T08:52:44.413Z,23.60
2023-05-13T08:54:18.598Z,23.80
2023-05-13T08:55:53.226Z,24.00
2023-05-13T08:57:26.453Z,24.40
2023-05-13T08:58:59.539Z,24.20
2023-05-13T09:00:34.371Z,23.40
2023-05-13T09:02:08.102Z,23.50
2023-05-13T09:03:53.391Z,23.40
2023-05-13T09:05:27.034Z,23.90
2023-05-13T09:07:00.758Z,24.20
2023-05-13T09:08:34.026Z,24.30
2023-05-13T09:10:09.377Z,24.80
2023-05-13T09:11:44.790Z,24.90
2023-05-13T09:13:19.287Z,24.50
2023-05-13T09:14:52.465Z,24.40
2023-05-13T09:16:26.909Z,24.60
2023-05-13T09:18:02.544Z,24.70
2023-05-13T09:19:37.175Z,25.00
2023-05-13T09:21:26.768Z,25.10
2023-05-13T09:23:01.609Z,25.00
2023-05-13T09:24:33.688Z,24.80
2023-05-13T09:26:06.808Z,24.70
2023-05-13T09:27:43.786Z,25.00
2023-05-13T09:29:22.482Z,25.10
2023-05-13T09:30:56.832Z,24.70
2023-05-13T09:32:30.067Z,24.90
2023-05-13T09:34:03.131Z,25.00
2023-05-13T09:35:38.068Z,25.30
2023-05-13T09:37:11.238Z,24.70
2023-05-13T09:38:44.371Z,24.80
2023-05-13T09:40:19.011Z,25.10
2023-05-13T09:41:52.244Z,24.80
2023-05-13T09:43:28.895Z,24.50
2023-05-13T09:45:07.608Z,24.10
2023-05-13T09:46:40.735Z,23.00
2023-05-13T09:48:15.432Z,22.70
2023-05-13T09:49:57.033Z,22.70
2023-05-13T09:51:31.165Z,22.20
2023-05-13T09:53:12.794Z,22.60
2023-05-13T09:54:45.847Z,23.00
2023-05-13T09:56:23.871Z,22.90
2023-05-13T09:57:56.922Z,23.20
2023-05-13T09:59:33.236Z,23.00
2023-05-13T10:01:06.491Z,22.60
2023-05-13T10:02:40.084Z,22.50
2023-05-13T10:04:13.499Z,22.50
2023-05-13T10:05:47.231Z,22.00
2023-05-13T10:07:24.410Z,21.70
2023-05-13T10:08:59.509Z,21.60
2023-05-13T10:10:33.768Z,22.20
2023-05-13T10:12:09.616Z,23.00
2023-05-13T10:13:44.607Z,24.20
2023-05-13T10:15:19.869Z,25.10
2023-05-13T10:16:53.669Z,25.70
2023-05-13T10:18:28.999Z,25.40
2023-05-13T10:20:03.652Z,24.20
2023-05-13T10:21:37.604Z,24.00
2023-05-13T10:23:11.273Z,24.00
2023-05-13T10:24:45.198Z,23.90
2023-05-13T10:26:18.557Z,23.60
2023-05-13T10:27:54.099Z,23.80
2023-05-13T10:29:28.636Z,23.80
2023-05-13T10:31:03.084Z,23.60
2023-05-13T10:32:37.989Z,23.60
2023-05-13T10:34:11.749Z,23.50
2023-05-13T10:35:54.812Z,23.50
2023-05-13T10:37:54.241Z,23.40
2023-05-13T10:39:40.354Z,23.10
2023-05-13T10:41:26.810Z,22.40
2023-05-13T10:43:12.880Z,22.00
2023-05-13T10:44:46.113Z,21.70
2023-05-13T10:46:20.833Z,21.70
2023-05-13T10:47:56.107Z,21.50
2023-05-13T10:49:34.740Z,21.40
2023-05-13T10:51:08.874Z,21.00
2023-05-13T10:52:48.442Z,21.00
2023-05-13T10:54:23.458Z,20.90
2023-05-13T10:55:57.880Z,20.60
2023-05-13T10:57:36.930Z,20.80
2023-05-13T10:59:10.014Z,21.00
2023-05-13T11:00:44.712Z,21.00
2023-05-13T11:02:24.344Z,21.00
2023-05-13T11:03:59.376Z,21.20
2023-05-13T11:05:31.680Z,21.00
2023-05-13T11:07:17.089Z,20.90
2023-05-13T11:08:52.497Z,20.90
2023-05-13T11:10:27.421Z,21.00
2023-05-13T11:12:01.350Z,20.80
2023-05-13T11:13:37.911Z,20.60
2023-05-13T11:15:22.795Z,20.40
2023-05-13T11:17:12.241Z,20.60
2023-05-13T11:18:45.809Z,20.80
2023-05-13T11:20:19.953Z,21.10
2023-05-13T11:21:54.718Z,21.10
2023-05-13T11:23:27.815Z,21.30
2023-05-13T11:25:09.087Z,21.50
2023-05-13T11:26:50.090Z,21.50
2023-05-13T11:28:59.944Z,21.60
2023-05-13T11:30:33.934Z,21.50
2023-05-13T11:32:08.160Z,21.60
2023-05-13T11:34:16.846Z,21.60
2023-05-13T11:35:56.709Z,21.50
2023-05-13T11:37:32.422Z,21.60
2023-05-13T11:39:11.932Z,21.60
2023-05-13T11:40:45.907Z,21.60
2023-05-13T11:42:19.254Z,21.40
2023-05-13T11:43:53.769Z,21.20
2023-05-13T11:45:27.953Z,20.90
2023-05-13T11:47:02.373Z,20.80
2023-05-13T11:48:35.907Z,20.70
2023-05-13T11:50:19.507Z,21.00
2023-05-13T11:51:53.959Z,21.20
2023-05-13T11:53:27.024Z,21.20
2023-05-13T11:55:00.144Z,21.00
2023-05-13T11:56:33.197Z,21.00
2023-05-13T11:58:06.306Z,21.00
2023-05-13T11:59:48.023Z,20.80
2023-05-13T12:01:21.978Z,20.50
2023-05-13T12:02:55.520Z,20.60
2023-05-13T12:04:30.468Z,20.80
2023-05-13T12:06:03.592Z,21.00
2023-05-13T12:07:39.485Z,21.00
2023-05-13T12:09:13.627Z,20.70
2023-05-13T12:10:46.826Z,20.50
2023-05-13T12:12:19.845Z,20.50
2023-05-13T12:13:52.995Z,20.50
2023-05-13T12:15:26.197Z,20.40
2023-05-13T12:16:58.741Z,20.10
2023-05-13T12:18:33.718Z,19.90
2023-05-13T12:20:12.633Z,19.60
2023-05-13T12:21:45.777Z,19.20
2023-05-13T12:23:20.216Z,19.00
2023-05-13T12:24:53.298Z,19.00
2023-05-13T12:26:26.456Z,18.90
2023-05-13T12:27:59.493Z,18.60
2023-05-13T12:29:41.238Z,18.50
2023-05-13T12:31:18.508Z,18.60
2023-05-13T12:32:52.195Z,18.50
2023-05-13T12:34:32.250Z,18.60
2023-05-13T12:36:25.757Z,18.60
2023-05-13T12:38:03.087Z,19.00
2023-05-13T12:39:37.714Z,19.30
2023-05-13T12:41:13.888Z,19.30
2023-05-13T12:42:46.961Z,19.40
2023-05-13T12:44:20.120Z,19.30
2023-05-13T12:45:55.653Z,19.20
2023-05-13T12:47:28.776Z,19.40
2023-05-13T12:49:04.546Z,19.40
2023-05-13T12:50:37.701Z,19.10
2023-05-13T12:52:10.142Z,19.10
2023-05-13T12:53:43.204Z,19.60
2023-05-13T12:55:17.979Z,19.90
2023-05-13T12:56:51.046Z,19.80
2023-05-13T12:58:24.167Z,19.60
2023-05-13T12:59:57.219Z,19.30
2023-05-13T13:01:30.435Z,19.20
2023-05-13T13:03:08.492Z,19.10
2023-05-13T13:04:42.024Z,19.00
2023-05-13T13:06:16.050Z,19.10
2023-05-13T13:07:49.596Z,19.40
2023-05-13T13:09:22.649Z,19.60
2023-05-13T13:10:57.164Z,19.80
2023-05-13T13:12:30.229Z,19.90
2023-05-13T13:14:03.360Z,19.70
2023-05-13T13:15:35.471Z,19.70
2023-05-13T13:17:08.669Z,19.40
2023-05-13T13:18:42.076Z,19.10
2023-05-13T13:20:14.306Z,19.10
2023-05-13T13:21:47.429Z,19.60
2023-05-13T13:23:20.643Z,19.80
2023-05-13T13:24:53.740Z,19.80
2023-05-13T13:26:28.298Z,19.70
2023-05-13T13:28:00.852Z,19.60
2023-05-13T13:29:33.947Z,19.50
2023-05-13T13:31:07.804Z,19.30
2023-05-13T13:32:40.918Z,19.40
2023-05-13T13:34:14.140Z,19.60
2023-05-13T13:35:48.190Z,19.70
2023-05-13T13:37:21.317Z,19.70
2023-05-13T13:38:54.460Z,19.60
2023-05-13T13:40:27.748Z,19.40
2023-05-13T13:42:04.575Z,19.20
2023-05-13T13:43:38.078Z,19.10
2023-05-13T13:45:12.576Z,18.80
2023-05-13T13:46:45.734Z,18.50
2023-05-13T13:48:18.867Z,18.30
2023-05-13T13:49:51.747Z,18.10
2023-05-13T13:51:24.967Z,17.90
2023-05-13T13:52:58.094Z,17.70
2023-05-13T13:54:31.153Z,17.60
2023-05-13T13:56:04.478Z,17.60
2023-05-13T13:57:39.051Z,17.60
2023-05-13T13:59:12.140Z,17.70
2023-05-13T14:00:45.229Z,17.70
2023-05-13T14:02:18.604Z,17.60
2023-05-13T14:03:52.199Z,17.60
2023-05-13T14:05:25.390Z,17.50
2023-05-13T14:06:58.704Z,17.50
2023-05-13T14:08:31.797Z,17.50
2023-05-13T14:10:05.732Z,17.50
2023-05-13T14:11:38.830Z,17.50
2023-05-13T14:13:13.473Z,17.60
2023-05-13T14:14:46.540Z,17.70
2023-05-13T14:16:19.875Z,17.80
2023-05-13T14:17:53.022Z,17.90
2023-05-13T14:19:26.376Z,17.90
2023-05-13T14:20:59.451Z,17.90
2023-05-13T14:22:32.634Z,17.90
2023-05-13T14:24:05.211Z,17.90
2023-05-13T14:25:38.328Z,17.90
2023-05-13T14:27:11.469Z,18.00
2023-05-13T14:28:46.348Z,18.10
2023-05-13T14:30:19.774Z,18.30
2023-05-13T14:31:53.100Z,18.30
2023-05-13T14:33:26.239Z,18.20
2023-05-13T14:34:59.376Z,18.30
2023-05-13T14:36:32.737Z,18.40
2023-05-13T14:38:05.848Z,18.40
2023-05-13T14:39:38.964Z,18.40
2023-05-13T14:41:12.632Z,18.30
2023-05-13T14:42:45.757Z,18.30
2023-05-13T14:44:20.193Z,18.30
2023-05-13T14:45:53.354Z,18.20
2023-05-13T14:47:26.729Z,18.10
2023-05-13T14:48:59.857Z,18.10
2023-05-13T14:50:33.543Z,18.00
2023-05-13T14:52:06.942Z,18.10
2023-05-13T14:53:40.131Z,18.00
2023-05-13T14:55:13.287Z,18.00
2023-05-13T14:56:46.631Z,18.10
2023-05-13T14:58:19.747Z,18.10
2023-05-13T14:59:54.182Z,18.10
2023-05-13T15:01:27.391Z,18.10
2023-05-13T15:03:00.717Z,18.10
2023-05-13T15:04:33.868Z,18.10
2023-05-13T15:06:07.534Z,18.10
2023-05-13T15:07:40.644Z,18.10
2023-05-13T15:09:13.763Z,18.10
2023-05-13T15:10:47.119Z,18.20
2023-05-13T15:12:20.216Z,18.40
2023-05-13T15:13:53.253Z,18.50
2023-05-13T15:15:27.760Z,18.50
2023-05-13T15:17:00.984Z,18.30
2023-05-13T15:18:34.624Z,18.00
2023-05-13T15:20:08.892Z,17.80
2023-05-13T15:21:42.070Z,17.60
2023-05-13T15:43:34.128Z,16.90
2023-05-13T15:45:08.378Z,16.80
2023-05-13T15:46:43.005Z,16.50
2023-05-13T15:48:16.331Z,16.20
2023-05-13T15:49:50.795Z,16.00
2023-05-13T15:51:23.930Z,15.80
2023-05-13T15:52:56.987Z,15.70
2023-05-13T15:54:30.133Z,15.50
2023-05-13T15:56:03.282Z,15.30
2023-05-13T15:57:36.415Z,15.20
2023-05-13T15:59:09.477Z,15.10
2023-05-13T16:00:43.017Z,15.10
2023-05-13T16:02:18.337Z,15.10
2023-05-13T16:03:51.461Z,15.30
2023-05-13T16:05:24.605Z,15.00
2023-05-13T16:06:57.774Z,14.90
